Time;durP1;ratioP1;P1;durP2;ratioP2;P2;SDS_P1;SDS_P2;PMS_P1;PMS_P2;Temp;Humidity;BMP_temperature;BMP_pressure;BME280_temperature;BME280_humidity;BME280_pressure;Samples;Min_cycle;Max_cycle;Signal;HPM_P1;HPM_P2
2023/04/02 00:01:01;;;;;;;4.10;2.28;;;18.30;71.70;;;;;;5050932;28;20108;-69
2023/04/02 00:03:40;;;;;;;3.15;2.20;;;18.20;71.70;;;;;;5051857;28;20026;-69
2023/04/02 00:06:33;;;;;;;2.92;2.05;;;18.20;71.70;;;;;;5051889;28;20021;-69
2023/04/02 00:09:38;;;;;;;5.03;2.50;;;18.20;71.90;;;;;;5031036;28;20022;-69
2023/04/02 00:12:22;;;;;;;3.55;2.28;;;18.20;71.80;;;;;;5032171;28;20104;-69
2023/04/02 00:14:52;;;;;;;3.75;2.30;;;18.20;71.90;;;;;;5030843;28;20076;-69
2023/04/02 00:17:18;;;;;;;4.97;2.35;;;18.20;71.90;;;;;;5013731;28;20397;-69
2023/04/02 00:19:52;;;;;;;4.05;2.33;;;18.20;72.00;;;;;;5014179;28;20386;-69
2023/04/02 00:22:20;;;;;;;2.92;2.17;;;18.10;72.00;;;;;;5030678;28;20056;-69
2023/04/02 00:24:48;;;;;;;3.40;2.33;;;18.20;72.10;;;;;;5030704;28;20396;-69
2023/04/02 00:27:14;;;;;;;2.67;2.10;;;18.20;72.10;;;;;;5031918;28;20113;-69
2023/04/02 00:29:50;;;;;;;5.15;2.45;;;18.10;72.10;;;;;;5031615;28;20100;-69
2023/04/02 00:32:25;;;;;;;4.93;2.25;;;18.20;72.20;;;;;;5034260;28;20030;-69
2023/04/02 00:34:50;;;;;;;4.75;2.30;;;18.10;72.10;;;;;;5017852;28;20493;-69
2023/04/02 00:37:26;;;;;;;3.72;2.22;;;18.10;72.10;;;;;;5034250;28;20022;-69
2023/04/02 00:40:04;;;;;;;4.07;1.60;;;18.10;72.20;;;;;;5034457;28;20490;-69
2023/04/02 00:42:30;;;;;;;3.58;2.17;;;18.10;72.20;;;;;;5034035;28;20040;-68
2023/04/02 00:44:57;;;;;;;3.03;1.77;;;18.10;72.20;;;;;;5034189;28;20481;-69
2023/04/02 00:47:34;;;;;;;4.88;2.35;;;18.10;72.20;;;;;;5034133;28;20052;-68
2023/04/02 00:50:15;;;;;;;2.22;1.92;;;18.10;72.20;;;;;;5054061;28;20074;-68
2023/04/02 00:52:42;;;;;;;2.72;1.70;;;18.10;72.20;;;;;;5055028;28;20041;-68
2023/04/02 00:55:12;;;;;;;3.15;1.90;;;18.10;72.30;;;;;;5053967;28;20036;-69
2023/04/02 00:57:41;;;;;;;4.68;2.30;;;18.10;72.40;;;;;;5053914;28;20028;-68
2023/04/02 01:00:14;;;;;;;3.00;2.10;;;18.00;72.40;;;;;;5070288;28;20163;-69
2023/04/02 01:02:40;;;;;;;2.28;1.55;;;18.10;72.40;;;;;;5054823;28;20067;-69
2023/04/02 01:05:15;;;;;;;5.28;2.05;;;18.10;72.50;;;;;;5087445;28;20029;-69
2023/04/02 01:07:50;;;;;;;4.72;2.00;;;18.00;72.50;;;;;;5054748;28;20032;-69
2023/04/02 01:10:34;;;;;;;2.72;1.70;;;18.00;72.60;;;;;;5054962;28;20029;-69
2023/04/02 01:13:13;;;;;;;3.00;1.90;;;18.00;72.60;;;;;;5054893;28;20025;-69
2023/04/02 01:15:58;;;;;;;2.40;1.73;;;18.00;72.50;;;;;;5053597;28;20047;-69
2023/04/02 01:18:32;;;;;;;5.38;2.20;;;18.00;72.60;;;;;;5054074;28;20527;-69
2023/04/02 01:21:06;;;;;;;3.97;1.77;;;18.00;72.70;;;;;;5054794;28;20071;-69
2023/04/02 01:23:43;;;;;;;2.60;1.70;;;18.00;72.60;;;;;;5054630;28;20025;-69
2023/04/02 01:26:35;;;;;;;2.75;1.88;;;18.00;72.60;;;;;;5053307;28;20412;-68
2023/04/02 01:29:05;;;;;;;4.20;2.10;;;18.00;72.60;;;;;;5035299;28;20032;-68
2023/04/02 01:31:32;;;;;;;3.30;1.80;;;18.00;72.70;;;;;;5019119;28;20475;-69
2023/04/02 01:33:57;;;;;;;3.30;1.60;;;18.00;72.60;;;;;;5035761;28;20036;-69
2023/04/02 01:36:50;;;;;;;2.65;1.77;;;17.90;72.70;;;;;;5035639;28;20040;-69
2023/04/02 01:39:43;;;;;;;3.88;1.60;;;17.90;72.70;;;;;;5016370;28;20092;-69
2023/04/02 01:42:12;;;;;;;3.97;2.05;;;17.90;72.70;;;;;;5015417;28;20038;-69
2023/04/02 01:44:51;;;;;;;1.92;1.65;;;17.90;72.70;;;;;;5031821;28;20026;-69
2023/04/02 01:47:19;;;;;;;2.95;1.60;;;17.90;72.70;;;;;;5016992;28;20041;-69
2023/04/02 01:49:45;;;;;;;3.35;1.90;;;17.90;72.80;;;;;;5021901;28;20091;-68
2023/04/02 01:52:18;;;;;;;3.08;1.60;;;17.90;72.80;;;;;;5035283;28;20698;-69
2023/04/02 01:54:46;;;;;;;5.03;2.00;;;17.90;72.60;;;;;;5035217;28;20021;-69
2023/04/02 01:57:11;;;;;;;2.50;1.25;;;17.90;72.20;;;;;;5035225;28;20105;-68
2023/04/02 01:59:37;;;;;;;4.55;1.58;;;17.80;72.30;;;;;;5031534;28;20488;-69
2023/04/02 02:02:08;;;;;;;4.35;1.40;;;17.80;72.30;;;;;;5031719;28;20472;-69
2023/04/02 02:04:33;;;;;;;3.55;1.60;;;17.80;72.40;;;;;;5031717;28;20026;-68
2023/04/02 02:07:02;;;;;;;3.70;1.58;;;17.80;72.40;;;;;;5036857;28;20554;-68
2023/04/02 02:09:36;;;;;;;3.00;1.13;;;17.80;72.50;;;;;;5052749;28;20021;-68
2023/04/02 02:12:03;;;;;;;4.43;2.08;;;17.80;72.50;;;;;;5053333;28;20558;-69
2023/04/02 02:14:29;;;;;;;3.17;1.60;;;17.80;72.60;;;;;;5019331;28;20428;-69
2023/04/02 02:16:57;;;;;;;2.63;1.50;;;17.80;72.60;;;;;;5052553;28;20075;-69
2023/04/02 02:19:24;;;;;;;3.35;1.58;;;17.80;73.60;;;;;;5053610;28;20087;-69
2023/04/02 02:22:02;;;;;;;5.25;1.42;;;17.80;72.60;;;;;;5052283;28;20025;-68
2023/04/02 02:24:30;;;;;;;4.05;1.50;;;17.80;72.70;;;;;;5052145;28;20040;-69
2023/04/02 02:27:23;;;;;;;3.25;1.30;;;17.70;72.70;;;;;;5052043;28;20013;-69
2023/04/02 02:29:50;;;;;;;3.35;1.38;;;17.80;72.80;;;;;;5052109;28;20029;-69
2023/04/02 02:32:16;;;;;;;2.88;1.45;;;17.70;72.80;;;;;;5019251;28;20469;-69
2023/04/02 02:34:45;;;;;;;2.72;1.35;;;17.70;72.80;;;;;;5035493;28;20028;-69
2023/04/02 02:37:15;;;;;;;2.83;1.48;;;17.70;72.80;;;;;;5052112;28;20023;-68
2023/04/02 02:39:44;;;;;;;2.83;1.73;;;17.70;72.80;;;;;;5052070;28;20106;-68
2023/04/02 02:42:16;;;;;;;5.30;1.90;;;17.70;72.90;;;;;;5051589;28;20500;-68
2023/04/02 02:44:46;;;;;;;2.15;1.17;;;17.70;73.00;;;;;;5051931;28;20021;-68
2023/04/02 02:47:21;;;;;;;4.80;1.50;;;17.70;72.90;;;;;;5018777;28;20033;-69
2023/04/02 02:49:49;;;;;;;2.22;1.15;;;17.70;73.00;;;;;;5035556;28;20105;-68
2023/04/02 02:52:16;;;;;;;2.38;1.35;;;17.70;73.00;;;;;;5034686;28;20045;-69
2023/04/02 02:54:48;;;;;;;2.63;1.27;;;17.70;73.00;;;;;;5051584;28;20123;-68
2023/04/02 02:57:27;;;;;;;3.50;1.50;;;17.70;73.10;;;;;;5035215;28;20508;-68
2023/04/02 02:59:54;;;;;;;2.38;1.27;;;17.70;73.10;;;;;;5051346;28;20025;-68
2023/04/02 03:02:19;;;;;;;2.95;1.50;;;17.60;73.10;;;;;;5085237;28;20028;-68
2023/04/02 03:04:50;;;;;;;3.60;1.38;;;17.60;73.10;;;;;;5085027;28;20367;-68
2023/04/02 03:07:15;;;;;;;3.17;1.95;;;17.60;73.00;;;;;;5061363;28;20013;-68
2023/04/02 03:10:05;;;;;;;4.45;1.40;;;17.60;73.00;;;;;;5064584;28;20397;-69
2023/04/02 03:12:58;;;;;;;2.47;1.02;;;17.60;73.00;;;;;;5064635;28;20470;-68
2023/04/02 03:16:10;;;;;;;2.13;1.33;;;17.60;73.10;;;;;;5064807;28;20025;-68
2023/04/02 03:18:44;;;;;;;3.92;1.40;;;17.60;73.10;;;;;;5049979;28;20453;-69
2023/04/02 03:21:19;;;;;;;3.17;1.30;;;17.60;73.10;;;;;;5034660;28;20041;-68
2023/04/02 03:23:46;;;;;;;2.65;1.50;;;17.60;73.10;;;;;;5049975;28;20048;-68
2023/04/02 03:26:18;;;;;;;2.95;1.52;;;17.60;73.20;;;;;;5033755;28;20104;-68
2023/04/02 03:29:13;;;;;;;2.33;1.15;;;17.60;73.10;;;;;;5033505;28;20597;-69
2023/04/02 03:31:44;;;;;;;4.47;1.30;;;17.60;73.20;;;;;;5022135;28;20047;-69
2023/04/02 03:34:22;;;;;;;2.05;1.20;;;17.60;73.10;;;;;;5033749;28;20047;-69
2023/04/02 03:36:56;;;;;;;3.78;1.33;;;17.50;73.10;;;;;;5050274;28;20041;-69
2023/04/02 03:39:26;;;;;;;2.90;1.23;;;17.50;73.10;;;;;;5049860;28;20040;-68
2023/04/02 03:41:57;;;;;;;2.08;1.20;;;17.50;73.10;;;;;;5049825;28;20037;-69
2023/04/02 03:44:27;;;;;;;1.53;1.13;;;17.50;73.10;;;;;;5033433;28;20033;-69
2023/04/02 03:46:57;;;;;;;4.38;1.50;;;17.50;73.10;;;;;;5017105;28;20543;-69
2023/04/02 03:50:01;;;;;;;3.58;1.20;;;17.50;73.10;;;;;;5033286;28;20513;-68
2023/04/02 03:52:27;;;;;;;3.85;1.05;;;17.50;73.10;;;;;;4971092;28;20063;-69
2023/04/02 03:54:54;;;;;;;2.72;1.20;;;17.50;73.20;;;;;;4946778;29;20047;-69
2023/04/02 03:57:36;;;;;;;4.40;1.63;;;17.50;73.20;;;;;;4967969;28;20039;-68
2023/04/02 04:00:06;;;;;;;2.25;1.25;;;17.40;73.20;;;;;;4982981;28;20411;-69
2023/04/02 04:02:39;;;;;;;2.10;1.10;;;17.50;73.30;;;;;;4987422;28;20496;-69
2023/04/02 04:05:05;;;;;;;3.38;1.13;;;17.50;73.30;;;;;;4990875;28;20037;-68
2023/04/02 04:07:37;;;;;;;1.60;1.10;;;17.50;73.30;;;;;;4991231;28;20090;-68
2023/04/02 04:10:03;;;;;;;1.85;1.05;;;17.50;73.40;;;;;;4959251;28;20483;-68
2023/04/02 04:12:45;;;;;;;2.33;1.13;;;17.50;73.40;;;;;;4958912;28;20035;-69
2023/04/02 04:15:32;;;;;;;3.65;1.00;;;17.40;73.30;;;;;;4958952;28;20031;-69
2023/04/02 04:18:33;;;;;;;1.95;1.20;;;17.40;73.50;;;;;;4974830;28;20617;-69
2023/04/02 04:21:04;;;;;;;4.18;1.45;;;17.40;73.50;;;;;;4959120;28;20042;-69
2023/04/02 04:23:35;;;;;;;3.13;1.05;;;17.40;73.50;;;;;;4996061;28;20080;-69
2023/04/02 04:26:25;;;;;;;2.50;1.50;;;17.40;73.50;;;;;;5051010;28;20026;-68
2023/04/02 04:29:14;;;;;;;1.70;1.10;;;17.40;73.50;;;;;;5034456;28;20022;-68
2023/04/02 04:31:49;;;;;;;4.85;1.42;;;17.40;73.50;;;;;;5067925;28;20021;-68
2023/04/02 04:34:18;;;;;;;1.95;0.88;;;17.30;73.50;;;;;;5067207;28;20022;-69
2023/04/02 04:37:00;;;;;;;1.58;1.10;;;17.40;73.60;;;;;;5033662;28;20433;-68
2023/04/02 04:39:48;;;;;;;2.63;1.17;;;17.40;73.60;;;;;;5050165;28;20028;-69
2023/04/02 04:42:23;;;;;;;2.58;1.30;;;17.40;74.60;;;;;;5048098;28;20044;-69
2023/04/02 04:44:59;;;;;;;2.08;1.08;;;17.40;73.60;;;;;;5033902;28;20029;-69
2023/04/02 04:47:34;;;;;;;1.77;1.27;;;17.40;73.60;;;;;;5050244;28;20024;-69
2023/04/02 04:50:06;;;;;;;1.80;1.08;;;17.30;73.70;;;;;;5067206;28;20024;-69
2023/04/02 04:52:36;;;;;;;2.17;1.13;;;17.30;73.50;;;;;;5049812;28;20052;-69
2023/04/02 04:55:03;;;;;;;1.83;1.02;;;17.30;73.60;;;;;;5050531;28;20627;-69
2023/04/02 04:57:36;;;;;;;0.95;0.90;;;17.30;73.60;;;;;;5067241;28;20120;-69
2023/04/02 05:00:18;;;;;;;1.25;0.82;;;17.30;73.60;;;;;;5082693;28;20029;-69
2023/04/02 05:03:08;;;;;;;1.48;1.08;;;17.30;73.70;;;;;;5053686;28;20037;-69
2023/04/02 05:05:36;;;;;;;2.47;1.20;;;17.20;73.60;;;;;;5036357;28;20029;-69
2023/04/02 05:08:18;;;;;;;3.00;1.20;;;17.30;73.70;;;;;;5032583;28;20579;-68
2023/04/02 05:10:45;;;;;;;1.90;0.80;;;17.20;73.60;;;;;;5049343;28;20112;-68
2023/04/02 05:13:42;;;;;;;1.58;1.00;;;17.30;73.70;;;;;;5032703;28;20485;-68
2023/04/02 05:16:23;;;;;;;1.50;1.10;;;17.20;73.70;;;;;;5026838;28;20037;-68
2023/04/02 05:19:16;;;;;;;1.88;1.00;;;17.20;73.70;;;;;;5032541;28;20030;-68
2023/04/02 05:21:58;;;;;;;2.70;1.08;;;17.20;73.70;;;;;;5032519;28;20044;-68
2023/04/02 05:24:31;;;;;;;2.33;1.15;;;17.20;73.70;;;;;;5032405;28;20525;-68
2023/04/02 05:26:59;;;;;;;1.55;1.00;;;17.20;73.60;;;;;;5032662;28;20053;-68
2023/04/02 05:29:28;;;;;;;2.38;1.30;;;17.20;73.60;;;;;;5049108;28;20517;-68
2023/04/02 05:31:53;;;;;;;1.42;1.00;;;17.20;73.60;;;;;;5049214;28;20025;-68
2023/04/02 05:34:28;;;;;;;1.38;0.80;;;17.20;73.70;;;;;;5032482;28;20444;-69
2023/04/02 05:36:54;;;;;;;1.92;1.10;;;17.20;73.60;;;;;;5048744;28;20033;-68
2023/04/02 05:39:23;;;;;;;1.55;0.90;;;17.20;73.70;;;;;;5032270;28;20040;-68
2023/04/02 05:42:15;;;;;;;1.77;1.13;;;17.20;73.70;;;;;;5049560;28;20030;-68
2023/04/02 05:44:53;;;;;;;1.40;1.00;;;17.20;73.70;;;;;;5030592;28;20128;-68
2023/04/02 05:47:21;;;;;;;2.50;1.10;;;17.20;73.70;;;;;;5017872;28;20030;-69
2023/04/02 05:50:07;;;;;;;4.20;0.98;;;17.20;73.80;;;;;;5034031;28;20017;-68
2023/04/02 05:52:35;;;;;;;1.67;1.00;;;17.20;73.70;;;;;;5052959;28;20566;-68
2023/04/02 05:55:15;;;;;;;1.48;1.05;;;17.20;73.80;;;;;;5069731;28;20028;-69
2023/04/02 05:57:46;;;;;;;2.40;1.17;;;17.10;73.80;;;;;;5054023;28;20059;-68
2023/04/02 06:00:20;;;;;;;0.90;0.70;;;17.10;73.90;;;;;;5069870;28;20032;-68
2023/04/02 06:02:58;;;;;;;2.30;0.95;;;17.10;73.90;;;;;;5068656;28;20036;-68
2023/04/02 06:05:43;;;;;;;2.70;1.02;;;17.10;73.80;;;;;;5052463;28;20024;-68
2023/04/02 06:08:34;;;;;;;2.10;1.10;;;17.10;73.90;;;;;;5049203;28;20575;-69
2023/04/02 06:11:10;;;;;;;1.95;0.73;;;17.10;74.00;;;;;;5046518;28;20036;-69
2023/04/02 06:13:36;;;;;;;2.70;1.00;;;17.10;74.00;;;;;;5052552;28;20485;-69
2023/04/02 06:16:02;;;;;;;1.65;0.90;;;17.10;75.00;;;;;;5052462;28;20024;-69
2023/04/02 06:18:34;;;;;;;4.60;1.00;;;17.10;74.10;;;;;;5068956;28;20028;-68
2023/04/02 06:21:00;;;;;;;0.77;0.65;;;17.10;74.10;;;;;;5053540;28;20025;-68
2023/04/02 06:23:50;;;;;;;2.15;0.90;;;17.10;74.20;;;;;;5068941;28;20040;-68
2023/04/02 06:26:28;;;;;;;1.98;0.80;;;17.10;74.20;;;;;;5069889;28;20213;-68
2023/04/02 06:29:04;;;;;;;2.22;0.80;;;17.10;74.30;;;;;;5069401;28;20044;-68
2023/04/02 06:31:55;;;;;;;1.50;0.82;;;17.10;74.30;;;;;;5069180;28;20062;-68
2023/04/02 06:34:22;;;;;;;2.38;0.88;;;17.10;74.40;;;;;;5051898;28;20029;-68
2023/04/02 06:36:48;;;;;;;2.33;1.27;;;17.10;74.40;;;;;;5052092;28;20115;-68
2023/04/02 06:39:18;;;;;;;1.38;0.80;;;17.00;74.30;;;;;;5068733;28;20497;-68
2023/04/02 06:41:44;;;;;;;1.58;0.90;;;17.00;74.30;;;;;;5051954;28;20520;-68
2023/04/02 06:44:20;;;;;;;2.38;0.68;;;17.10;74.40;;;;;;5051842;28;20021;-68
2023/04/02 06:47:10;;;;;;;2.55;1.02;;;17.00;74.40;;;;;;5052367;28;20120;-69
2023/04/02 06:49:42;;;;;;;2.00;0.80;;;17.00;74.40;;;;;;5048559;28;20036;-68
2023/04/02 06:52:18;;;;;;;1.77;0.90;;;17.00;74.50;;;;;;5052821;28;20500;-68
2023/04/02 06:54:44;;;;;;;1.85;1.00;;;17.00;74.40;;;;;;5052390;28;20075;-68
2023/04/02 06:57:09;;;;;;;2.60;0.88;;;17.00;74.40;;;;;;5051796;28;20028;-68
2023/04/02 06:59:35;;;;;;;1.20;0.75;;;17.00;74.50;;;;;;5068073;28;20029;-69
2023/04/02 07:02:10;;;;;;;1.55;1.08;;;17.00;74.50;;;;;;5051242;28;20021;-68
2023/04/02 07:04:36;;;;;;;4.03;0.90;;;17.00;74.50;;;;;;5051696;28;20097;-68
2023/04/02 07:07:01;;;;;;;2.83;0.95;;;17.00;74.50;;;;;;5051276;28;20552;-68
2023/04/02 07:09:27;;;;;;;3.50;0.85;;;17.00;74.60;;;;;;5052618;28;20021;-68
2023/04/02 07:11:53;;;;;;;1.70;0.90;;;17.00;74.50;;;;;;5052560;28;20083;-68
2023/04/02 07:14:18;;;;;;;3.22;0.80;;;17.00;74.50;;;;;;5051394;28;20500;-68
2023/04/02 07:16:44;;;;;;;1.65;0.93;;;17.00;74.50;;;;;;5052447;28;20029;-68
2023/04/02 07:19:20;;;;;;;1.83;0.82;;;17.00;74.60;;;;;;5051108;28;20032;-69
2023/04/02 07:21:46;;;;;;;1.40;0.77;;;17.00;74.60;;;;;;5051509;28;20027;-69
2023/04/02 07:24:12;;;;;;;3.40;0.70;;;17.00;74.60;;;;;;5051214;28;20025;-69
2023/04/02 07:26:37;;;;;;;2.10;0.82;;;17.00;75.60;;;;;;5034598;28;20029;-69
2023/04/02 07:29:06;;;;;;;3.17;0.90;;;17.00;74.60;;;;;;5051303;28;20389;-68
2023/04/02 07:31:31;;;;;;;1.05;0.70;;;17.00;74.60;;;;;;5050966;28;20021;-69
2023/04/02 07:33:58;;;;;;;2.70;0.70;;;17.00;74.60;;;;;;5051269;28;20028;-69
2023/04/02 07:36:25;;;;;;;2.00;0.90;;;16.90;74.50;;;;;;5050973;28;20083;-69
2023/04/02 07:38:50;;;;;;;3.03;1.00;;;17.00;74.80;;;;;;5050712;28;20104;-69
2023/04/02 07:41:16;;;;;;;2.67;1.10;;;16.90;74.70;;;;;;5052197;28;20105;-69
2023/04/02 07:43:42;;;;;;;3.10;1.10;;;16.90;74.80;;;;;;5050887;28;20485;-69
2023/04/02 07:46:08;;;;;;;1.08;0.93;;;16.90;74.80;;;;;;5050718;28;20025;-69
2023/04/02 07:48:34;;;;;;;1.27;0.80;;;16.90;74.80;;;;;;5050929;28;20040;-69
2023/04/02 07:51:02;;;;;;;1.27;0.90;;;16.90;74.80;;;;;;5052061;28;20508;-68
2023/04/02 07:53:36;;;;;;;1.20;0.80;;;16.90;74.90;;;;;;5050879;28;20052;-69
2023/04/02 07:56:02;;;;;;;0.70;0.63;;;16.90;74.90;;;;;;5052011;28;20029;-69
2023/04/02 07:58:28;;;;;;;1.52;0.70;;;16.90;74.90;;;;;;5050663;28;20026;-69
2023/04/02 08:00:54;;;;;;;2.88;0.90;;;16.90;75.00;;;;;;5084138;28;20040;-69
2023/04/02 08:03:20;;;;;;;0.90;0.60;;;17.00;75.00;;;;;;5084057;28;20021;-69
2023/04/02 08:05:53;;;;;;;1.33;0.85;;;16.90;75.00;;;;;;5084236;28;20021;-69
2023/04/02 08:08:19;;;;;;;0.95;0.70;;;16.90;75.00;;;;;;5069027;28;20029;-69
2023/04/02 08:10:45;;;;;;;1.35;0.80;;;16.90;75.00;;;;;;5047290;28;20033;-68
2023/04/02 08:13:11;;;;;;;0.85;0.50;;;16.90;75.10;;;;;;5031955;28;20025;-69
2023/04/02 08:15:36;;;;;;;1.02;0.80;;;16.90;75.10;;;;;;5031737;28;20108;-69
2023/04/02 08:18:02;;;;;;;0.82;0.70;;;16.90;75.10;;;;;;5031999;28;20032;-69
2023/04/02 08:20:28;;;;;;;1.08;0.70;;;16.90;75.10;;;;;;5031857;28;20029;-69
2023/04/02 08:22:53;;;;;;;1.10;0.68;;;16.90;75.10;;;;;;5032047;28;20025;-69
2023/04/02 08:25:19;;;;;;;1.95;0.80;;;16.90;75.00;;;;;;5063777;28;20033;-68
2023/04/02 08:27:48;;;;;;;1.13;0.70;;;16.90;75.10;;;;;;5031924;28;20101;-69
2023/04/02 08:30:16;;;;;;;2.25;0.90;;;16.90;75.20;;;;;;5031712;28;20022;-69
2023/04/02 08:32:41;;;;;;;1.17;0.75;;;16.90;75.20;;;;;;5031813;28;20109;-68
2023/04/02 08:35:13;;;;;;;1.58;0.88;;;16.90;75.10;;;;;;5063882;28;20460;-68
2023/04/02 08:37:39;;;;;;;1.20;0.80;;;16.90;75.20;;;;;;5031822;28;20030;-68
2023/04/02 08:40:08;;;;;;;0.73;0.60;;;16.90;75.10;;;;;;5047198;28;20048;-69
2023/04/02 08:42:48;;;;;;;0.85;0.60;;;16.90;75.20;;;;;;5031626;28;20028;-69
2023/04/02 08:45:52;;;;;;;2.10;0.55;;;16.90;75.20;;;;;;5045561;28;20041;-68
2023/04/02 08:48:18;;;;;;;1.02;0.60;;;16.90;75.20;;;;;;5032452;28;20044;-69
2023/04/02 08:50:43;;;;;;;1.42;0.63;;;16.90;75.20;;;;;;5064684;28;20401;-69
2023/04/02 08:53:36;;;;;;;1.45;0.80;;;16.90;75.30;;;;;;5035217;28;20488;-69
2023/04/02 08:56:24;;;;;;;0.70;0.68;;;16.90;75.20;;;;;;5017517;28;20486;-69
2023/04/02 08:58:53;;;;;;;1.95;0.60;;;16.90;75.20;;;;;;5040667;28;20500;-69
2023/04/02 09:01:36;;;;;;;0.90;0.52;;;16.90;75.20;;;;;;5054238;28;20024;-68
2023/04/02 09:04:04;;;;;;;0.65;0.52;;;16.90;75.20;;;;;;5053986;28;20025;-68
2023/04/02 09:06:30;;;;;;;1.35;0.70;;;16.90;75.40;;;;;;5053582;28;20029;-69
2023/04/02 09:08:56;;;;;;;3.40;0.80;;;16.80;75.20;;;;;;5067059;28;20025;-68
2023/04/02 09:11:23;;;;;;;1.05;0.50;;;16.80;75.20;;;;;;5066747;28;20057;-68
2023/04/02 09:14:00;;;;;;;1.27;0.63;;;16.90;75.30;;;;;;5067007;28;20100;-68
2023/04/02 09:16:50;;;;;;;1.30;0.70;;;16.90;75.30;;;;;;5066529;28;20030;-68
2023/04/02 09:19:36;;;;;;;0.63;0.40;;;16.80;75.30;;;;;;5033630;28;20075;-68
2023/04/02 09:22:21;;;;;;;5.15;0.65;;;16.80;75.30;;;;;;5066972;28;20224;-68
2023/04/02 09:24:53;;;;;;;1.13;0.65;;;16.90;75.40;;;;;;5063485;28;20032;-68
2023/04/02 09:27:19;;;;;;;;;;;16.80;75.30;;;;;;5066731;28;20014;-68
2023/04/02 09:29:48;;;;;;;0.73;0.60;;;16.90;75.40;;;;;;5033576;28;19912;-68
2023/04/02 09:32:35;;;;;;;1.00;0.60;;;16.80;75.40;;;;;;5049884;28;20083;-68
2023/04/02 09:35:17;;;;;;;1.98;0.68;;;16.80;75.40;;;;;;5034579;28;20063;-68
2023/04/02 09:37:43;;;;;;;0.68;0.60;;;16.80;75.40;;;;;;5048517;28;20025;-68
2023/04/02 09:40:26;;;;;;;1.85;0.50;;;16.80;75.50;;;;;;5049899;28;20021;-69
2023/04/02 09:43:20;;;;;;;;;;;16.80;75.50;;;;;;5049257;28;20074;-69
2023/04/02 09:46:15;;;;;;;1.95;0.50;;;16.80;75.50;;;;;;5025397;28;19911;-68
2023/04/02 09:48:52;;;;;;;1.08;0.68;;;16.80;75.60;;;;;;5047361;28;20028;-68
2023/04/02 09:51:22;;;;;;;1.85;0.52;;;16.80;75.50;;;;;;5064136;28;20021;-69
2023/04/02 09:53:49;;;;;;;0.77;0.60;;;16.80;75.50;;;;;;5048862;28;20099;-68
2023/04/02 09:56:22;;;;;;;0.80;0.60;;;16.80;75.60;;;;;;5049357;28;20079;-68
2023/04/02 09:59:12;;;;;;;0.60;0.60;;;16.80;75.60;;;;;;5054596;28;20027;-68
2023/04/02 10:01:39;;;;;;;1.10;0.88;;;16.80;75.60;;;;;;5053679;28;20033;-68
2023/04/02 10:04:06;;;;;;;2.85;0.70;;;16.80;75.60;;;;;;5069400;28;20079;-68
2023/04/02 10:06:32;;;;;;;0.88;0.50;;;16.80;75.60;;;;;;5085875;28;20025;-68
2023/04/02 10:09:17;;;;;;;2.45;0.55;;;16.80;75.70;;;;;;5052702;28;20025;-68
2023/04/02 10:11:43;;;;;;;0.40;0.40;;;16.80;75.60;;;;;;5052430;28;20542;-69
2023/04/02 10:14:19;;;;;;;0.80;0.50;;;16.80;75.60;;;;;;5052779;28;20028;-68
2023/04/02 10:16:50;;;;;;;0.82;0.63;;;16.80;75.60;;;;;;5052489;28;20025;-68
2023/04/02 10:19:31;;;;;;;0.75;0.50;;;16.80;75.70;;;;;;5052431;28;20029;-68
2023/04/02 10:21:57;;;;;;;0.70;0.60;;;16.80;75.70;;;;;;5052303;28;20025;-69
2023/04/02 10:24:22;;;;;;;1.27;0.60;;;16.80;75.70;;;;;;5052361;28;20112;-69
2023/04/02 10:26:57;;;;;;;0.40;0.40;;;16.80;75.70;;;;;;5052046;28;20025;-69
2023/04/02 10:30:01;;;;;;;0.50;0.50;;;16.80;75.80;;;;;;5053371;28;20021;-69
2023/04/02 10:32:40;;;;;;;0.65;0.50;;;16.80;75.70;;;;;;5052387;28;20096;-68
2023/04/02 10:35:36;;;;;;;1.23;0.60;;;16.80;75.90;;;;;;5052134;28;20375;-69
2023/04/02 10:38:29;;;;;;;0.50;0.50;;;16.80;75.80;;;;;;5051846;28;20025;-68
2023/04/02 10:41:03;;;;;;;0.77;0.55;;;16.80;75.80;;;;;;5051964;28;20033;-68
2023/04/02 10:43:45;;;;;;;0.85;0.52;;;16.80;75.90;;;;;;5051712;28;20108;-68
2023/04/02 10:46:33;;;;;;;0.63;0.50;;;16.80;75.90;;;;;;5052184;28;20017;-68
2023/04/02 10:49:24;;;;;;;1.15;0.55;;;16.80;75.80;;;;;;5051332;28;20048;-69
2023/04/02 10:52:09;;;;;;;1.10;0.55;;;16.80;75.80;;;;;;5070153;28;20104;-68
2023/04/02 10:54:51;;;;;;;0.90;0.68;;;16.80;75.80;;;;;;5051588;28;20032;-68
2023/04/02 10:57:39;;;;;;;0.68;0.50;;;16.80;75.90;;;;;;5051651;28;20116;-68
2023/04/02 11:00:11;;;;;;;1.00;0.60;;;16.80;76.30;;;;;;5052849;28;20029;-68
2023/04/02 11:03:05;;;;;;;1.17;0.73;;;16.80;75.90;;;;;;5052622;28;20404;-68
2023/04/02 11:05:39;;;;;;;1.17;0.63;;;16.80;75.90;;;;;;5052894;28;20013;-68
2023/04/02 11:08:13;;;;;;;0.98;0.47;;;16.80;75.90;;;;;;5039382;28;20108;-69
2023/04/02 11:10:39;;;;;;;2.47;0.70;;;16.80;75.90;;;;;;5032778;28;20033;-68
2023/04/02 11:13:23;;;;;;;1.75;0.70;;;16.80;76.00;;;;;;5047452;28;20441;-68
2023/04/02 11:15:48;;;;;;;0.50;0.50;;;16.80;75.90;;;;;;5046495;28;20029;-69
2023/04/02 11:18:35;;;;;;;0.57;0.57;;;16.80;75.90;;;;;;5048298;28;20033;-68
2023/04/02 11:21:06;;;;;;;2.45;0.52;;;16.80;75.90;;;;;;5047720;28;20025;-68
2023/04/02 11:23:33;;;;;;;0.85;0.50;;;16.80;76.00;;;;;;5063971;28;20398;-68
2023/04/02 11:26:34;;;;;;;0.73;0.68;;;16.80;76.00;;;;;;5047805;28;20024;-69
2023/04/02 11:29:26;;;;;;;0.98;0.50;;;16.80;75.90;;;;;;5032667;28;20021;-69
2023/04/02 11:32:14;;;;;;;1.13;0.50;;;16.80;76.00;;;;;;5032774;28;20056;-68
2023/04/02 11:34:44;;;;;;;1.13;0.50;;;16.80;75.90;;;;;;5032333;28;20152;-68
2023/04/02 11:37:28;;;;;;;1.70;0.60;;;16.80;76.00;;;;;;5031005;28;20033;-69
2023/04/02 11:39:58;;;;;;;1.95;0.60;;;16.80;76.00;;;;;;5045266;28;20025;-69
2023/04/02 11:42:29;;;;;;;1.10;0.50;;;16.80;76.00;;;;;;5064190;28;20018;-68
2023/04/02 11:44:55;;;;;;;0.98;0.50;;;16.80;76.00;;;;;;5050997;28;20428;-67
2023/04/02 11:47:21;;;;;;;1.60;0.70;;;16.80;75.70;;;;;;5068348;28;20477;-68
2023/04/02 11:50:00;;;;;;;1.60;1.00;;;16.80;74.60;;;;;;5051489;28;20021;-68
2023/04/02 11:52:59;;;;;;;2.17;0.93;;;16.80;73.30;;;;;;5067739;28;20041;-68
2023/04/02 11:55:26;;;;;;;1.80;0.90;;;16.60;71.20;;;;;;5033741;28;20380;-67
2023/04/02 11:58:19;;;;;;;4.45;1.00;;;16.60;70.20;;;;;;5033765;28;20052;-68
2023/04/02 12:00:48;;;;;;;2.42;1.20;;;16.60;69.30;;;;;;5050214;28;20090;-68
2023/04/02 12:03:46;;;;;;;3.72;1.20;;;16.50;68.70;;;;;;5050171;28;20041;-69
2023/04/02 12:06:41;;;;;;;6.43;1.23;;;16.40;68.00;;;;;;5047486;28;20032;-67
2023/04/02 12:09:17;;;;;;;5.53;1.25;;;16.50;71.00;;;;;;5041938;28;20021;-68
2023/04/02 12:11:43;;;;;;;10.77;1.00;;;16.60;71.80;;;;;;5031837;28;20099;-70
2023/04/02 12:14:31;;;;;;;15.45;1.30;;;16.80;71.60;;;;;;5016809;28;20417;-70
2023/04/02 12:16:58;;;;;;;8.23;1.35;;;17.00;71.00;;;;;;5033596;28;20116;-71
2023/04/02 12:19:24;;;;;;;4.00;0.73;;;17.10;70.80;;;;;;5017381;28;20535;-71
2023/04/02 12:21:51;;;;;;;3.67;0.77;;;17.10;70.80;;;;;;5017039;28;20024;-70
2023/04/02 12:24:20;;;;;;;6.38;1.00;;;17.20;70.90;;;;;;5034270;28;20483;-70
2023/04/02 12:26:46;;;;;;;4.00;0.63;;;17.30;70.80;;;;;;5021186;28;20032;-70
2023/04/02 12:29:27;;;;;;;2.78;0.93;;;17.30;70.80;;;;;;5004700;28;20051;-70
2023/04/02 12:31:54;;;;;;;4.80;0.73;;;17.40;70.70;;;;;;5052265;28;20030;-70
2023/04/02 12:34:21;;;;;;;2.20;0.40;;;17.50;70.50;;;;;;5054843;28;20401;-70
2023/04/02 12:37:03;;;;;;;1.35;0.60;;;17.50;70.30;;;;;;5054770;28;20021;-68
2023/04/02 12:39:32;;;;;;;1.37;0.57;;;17.60;70.20;;;;;;5055091;28;20025;-70
2023/04/02 12:41:58;;;;;;;4.28;0.60;;;17.70;70.10;;;;;;5054813;28;20036;-70
2023/04/02 12:44:28;;;;;;;1.45;0.60;;;17.70;69.90;;;;;;5038176;28;20021;-70
2023/04/02 12:46:54;;;;;;;2.20;0.57;;;17.80;70.90;;;;;;5054827;28;20408;-69
2023/04/02 12:49:33;;;;;;;0.90;0.60;;;17.80;69.70;;;;;;5021690;28;20029;-71
2023/04/02 12:52:02;;;;;;;2.20;0.65;;;17.90;69.50;;;;;;5054503;28;20029;-71
2023/04/02 12:54:28;;;;;;;1.95;0.52;;;17.90;69.40;;;;;;5038254;28;20055;-71
2023/04/02 12:56:53;;;;;;;2.78;0.77;;;17.90;69.30;;;;;;5038372;28;20025;-69
2023/04/02 12:59:35;;;;;;;1.02;0.40;;;18.00;69.20;;;;;;5054356;28;20457;-70
2023/04/02 13:02:02;;;;;;;2.17;0.85;;;18.00;69.00;;;;;;5054517;28;20108;-70
2023/04/02 13:04:28;;;;;;;2.25;0.50;;;18.10;69.00;;;;;;5054023;28;20017;-69
2023/04/02 13:06:57;;;;;;;1.58;0.60;;;18.10;68.90;;;;;;5054401;28;20116;-69
2023/04/02 13:09:30;;;;;;;1.65;0.57;;;18.10;68.70;;;;;;5054489;28;20020;-69
2023/04/02 13:11:56;;;;;;;0.73;0.60;;;18.20;68.70;;;;;;5054260;28;20469;-69
2023/04/02 13:14:22;;;;;;;1.13;0.60;;;18.20;68.50;;;;;;5053992;28;20059;-69
2023/04/02 13:16:47;;;;;;;2.45;0.38;;;18.20;68.50;;;;;;5037720;28;20025;-69
2023/04/02 13:19:16;;;;;;;0.90;0.40;;;18.30;68.40;;;;;;5037545;28;20096;-68
2023/04/02 13:21:42;;;;;;;1.70;0.57;;;18.30;68.30;;;;;;5055304;28;20059;-71
2023/04/02 13:24:28;;;;;;;1.10;0.60;;;18.30;68.20;;;;;;5055338;28;20021;-70